Time;durP1;ratioP1;P1;durP2;ratioP2;P2;SDS_P1;SDS_P2;PMS_P1;PMS_P2;Temp;Humidity;BMP_temperature;BMP_pressure;BME280_temperature;BME280_humidity;BME280_pressure;Samples;Min_cycle;Max_cycle;Signal;HPM_P1;HPM_P2
2021/05/21 00:00:25;;;;;;;4.03;1.73;;;;;;;;;;5021576;28;20475;-60
2021/05/21 00:02:51;;;;;;;3.95;2.00;;;;;;;;;;4990105;28;20066;-60
2021/05/21 00:05:17;;;;;;;4.15;1.70;;;;;;;;;;4989964;28;20029;-60
2021/05/21 00:07:43;;;;;;;5.95;1.70;;;;;;;;;;4989917;28;20037;-61
2021/05/21 00:10:09;;;;;;;5.55;1.75;;;;;;;;;;4989914;28;20495;-60
2021/05/21 00:12:36;;;;;;;4.93;1.63;;;;;;;;;;4990201;28;20034;-59
2021/05/21 00:15:04;;;;;;;4.55;1.60;;;;;;;;;;4994549;28;20036;-60
2021/05/21 00:17:30;;;;;;;3.53;1.60;;;;;;;;;;5041449;28;20371;-61
2021/05/21 00:19:56;;;;;;;3.58;1.50;;;;;;;;;;5009510;28;20037;-59
2021/05/21 00:22:22;;;;;;;3.00;1.67;;;;;;;;;;5009529;28;20030;-60
2021/05/21 00:24:48;;;;;;;4.32;1.60;;;;;;;;;;5009651;28;20022;-60
2021/05/21 00:27:14;;;;;;;3.80;1.48;;;;;;;;;;5009444;28;20114;-60
2021/05/21 00:29:40;;;;;;;3.75;1.60;;;;;;;;;;5009444;28;20110;-60
2021/05/21 00:32:07;;;;;;;3.45;1.60;;;;;;;;;;5009351;28;20022;-60
2021/05/21 00:34:33;;;;;;;4.22;1.65;;;;;;;;;;5009322;28;20109;-60
2021/05/21 00:36:59;;;;;;;4.05;1.63;;;;;;;;;;5009065;28;20038;-60
2021/05/21 00:39:25;;;;;;;7.65;2.30;;;;;;;;;;5009179;28;20026;-60
2021/05/21 00:41:51;;;;;;;4.03;1.55;;;;;;;;;;5008940;28;20525;-60
2021/05/21 00:44:17;;;;;;;3.63;1.58;;;;;;;;;;5009043;28;20494;-59
2021/05/21 00:46:43;;;;;;;4.50;1.45;;;;;;;;;;5009257;28;20116;-60
2021/05/21 00:49:09;;;;;;;4.53;1.75;;;;;;;;;;5011613;28;20638;-60
2021/05/21 00:51:36;;;;;;;2.83;1.55;;;;;;;;;;5012732;28;20033;-59
2021/05/21 00:54:02;;;;;;;4.07;1.77;;;;;;;;;;5012343;28;20414;-60
2021/05/21 00:56:30;;;;;;;2.88;1.60;;;;;;;;;;5012099;28;20022;-60
2021/05/21 00:58:58;;;;;;;3.17;1.33;;;;;;;;;;5012302;28;20044;-61
2021/05/21 01:01:24;;;;;;;3.08;1.60;;;;;;;;;;5012233;28;20500;-61
2021/05/21 01:03:50;;;;;;;2.75;1.50;;;;;;;;;;5012220;28;20042;-60
2021/05/21 01:06:16;;;;;;;3.90;1.63;;;;;;;;;;5012361;28;20132;-61
2021/05/21 01:08:42;;;;;;;4.28;1.77;;;;;;;;;;5001475;28;20106;-60
2021/05/21 01:11:09;;;;;;;3.42;1.63;;;;;;;;;;4992888;28;20031;-60
2021/05/21 01:13:35;;;;;;;4.78;1.88;;;;;;;;;;4992805;28;20528;-60
2021/05/21 01:16:02;;;;;;;4.25;1.83;;;;;;;;;;4992684;28;20030;-60
2021/05/21 01:18:28;;;;;;;4.15;1.80;;;;;;;;;;4992395;28;20030;-60
2021/05/21 01:20:54;;;;;;;3.42;1.60;;;;;;;;;;4992474;28;20087;-60
2021/05/21 01:23:20;;;;;;;3.33;1.75;;;;;;;;;;4992407;28;20041;-60
2021/05/21 01:25:46;;;;;;;4.07;1.80;;;;;;;;;;4992578;28;20022;-60
2021/05/21 01:28:15;;;;;;;2.92;1.42;;;;;;;;;;4992484;28;20075;-60
2021/05/21 01:30:41;;;;;;;5.53;2.00;;;;;;;;;;4992228;28;20022;-59
2021/05/21 01:33:08;;;;;;;4.22;1.70;;;;;;;;;;4991818;28;20497;-61
2021/05/21 01:35:34;;;;;;;3.78;1.65;;;;;;;;;;4991910;28;20061;-60
2021/05/21 01:38:01;;;;;;;2.85;1.50;;;;;;;;;;4991580;28;20044;-60
2021/05/21 01:40:28;;;;;;;3.40;1.67;;;;;;;;;;4991607;28;20446;-60
2021/05/21 01:42:55;;;;;;;4.10;1.88;;;;;;;;;;4991759;28;20437;-61
2021/05/21 01:45:21;;;;;;;3.92;1.60;;;;;;;;;;4991736;28;20029;-60
2021/05/21 01:47:48;;;;;;;4.95;1.80;;;;;;;;;;4991465;28;20022;-58
2021/05/21 01:50:14;;;;;;;3.75;1.70;;;;;;;;;;4991564;28;20487;-61
2021/05/21 01:52:40;;;;;;;3.70;1.92;;;;;;;;;;4991459;28;20034;-60
2021/05/21 01:55:07;;;;;;;4.18;1.65;;;;;;;;;;4991520;28;20109;-60
2021/05/21 01:57:35;;;;;;;3.00;1.50;;;;;;;;;;4991086;28;20068;-60
2021/05/21 02:00:03;;;;;;;4.80;2.08;;;;;;;;;;4990971;28;20467;-60
2021/05/21 02:02:29;;;;;;;3.08;1.42;;;;;;;;;;4991531;28;20038;-60
2021/05/21 02:04:55;;;;;;;3.72;1.50;;;;;;;;;;4992050;28;20026;-60
2021/05/21 02:07:21;;;;;;;3.20;1.73;;;;;;;;;;4991944;28;20600;-60
2021/05/21 02:09:57;;;;;;;3.25;1.50;;;;;;;;;;4991785;28;20019;-59
2021/05/21 02:12:24;;;;;;;6.82;1.50;;;;;;;;;;4991471;28;20026;-59
2021/05/21 02:14:50;;;;;;;3.55;1.80;;;;;;;;;;4993098;28;20094;-61
2021/05/21 02:17:16;;;;;;;4.03;2.13;;;;;;;;;;5011242;28;20026;-60
2021/05/21 02:19:43;;;;;;;4.72;1.60;;;;;;;;;;5011272;28;20018;-61
2021/05/21 02:22:09;;;;;;;4.78;1.65;;;;;;;;;;5011266;28;20083;-61
2021/05/21 02:24:36;;;;;;;3.70;1.55;;;;;;;;;;5011124;28;20161;-60
2021/05/21 02:27:02;;;;;;;3.22;1.70;;;;;;;;;;5011313;28;20051;-60
2021/05/21 02:29:28;;;;;;;2.70;1.35;;;;;;;;;;5011198;28;20026;-60
2021/05/21 02:31:54;;;;;;;5.00;1.48;;;;;;;;;;5011139;28;20030;-61
2021/05/21 02:34:20;;;;;;;6.28;1.95;;;;;;;;;;5011200;28;20033;-60
2021/05/21 02:36:46;;;;;;;3.97;1.60;;;;;;;;;;5010995;28;20041;-60
2021/05/21 02:39:12;;;;;;;3.92;1.73;;;;;;;;;;5042599;28;20030;-60
2021/05/21 02:41:39;;;;;;;4.13;1.75;;;;;;;;;;5010948;28;20199;-61
2021/05/21 02:44:05;;;;;;;3.45;1.65;;;;;;;;;;5010916;28;20018;-59
2021/05/21 02:46:31;;;;;;;4.45;1.58;;;;;;;;;;5010945;28;20026;-60
2021/05/21 02:48:57;;;;;;;3.33;1.40;;;;;;;;;;5010736;28;20034;-61
2021/05/21 02:51:23;;;;;;;4.72;1.58;;;;;;;;;;5010785;28;20022;-60
2021/05/21 02:53:49;;;;;;;3.50;1.95;;;;;;;;;;5010795;28;20022;-60
2021/05/21 02:56:15;;;;;;;4.47;1.65;;;;;;;;;;5010551;28;20018;-60
2021/05/21 02:58:41;;;;;;;2.92;1.50;;;;;;;;;;5010792;28;20032;-60
2021/05/21 03:01:07;;;;;;;3.33;1.60;;;;;;;;;;5010650;28;20420;-60
2021/05/21 03:03:33;;;;;;;3.33;1.42;;;;;;;;;;5010528;28;20111;-60
2021/05/21 03:05:59;;;;;;;4.25;1.60;;;;;;;;;;5010509;28;20393;-60
2021/05/21 03:08:25;;;;;;;3.22;1.70;;;;;;;;;;5010386;28;20079;-61
2021/05/21 03:10:51;;;;;;;3.53;1.70;;;;;;;;;;5009659;28;20022;-62
2021/05/21 03:13:18;;;;;;;4.90;1.80;;;;;;;;;;5010473;28;20033;-61
2021/05/21 03:15:45;;;;;;;3.55;1.40;;;;;;;;;;5010102;28;20022;-60
2021/05/21 03:18:13;;;;;;;3.67;1.75;;;;;;;;;;5009999;28;20014;-60
2021/05/21 03:20:39;;;;;;;3.83;1.65;;;;;;;;;;5010153;28;20022;-61
2021/05/21 03:23:05;;;;;;;3.75;1.80;;;;;;;;;;5010236;28;20034;-61
2021/05/21 03:25:31;;;;;;;4.57;1.50;;;;;;;;;;5010475;28;20026;-60
2021/05/21 03:27:57;;;;;;;4.90;1.65;;;;;;;;;;5010197;28;20030;-60
2021/05/21 03:30:23;;;;;;;5.32;1.83;;;;;;;;;;5010396;28;20021;-60
2021/05/21 03:32:49;;;;;;;4.00;1.73;;;;;;;;;;5010171;28;20030;-61
2021/05/21 03:35:15;;;;;;;5.35;1.77;;;;;;;;;;5010199;28;20034;-60
2021/05/21 03:37:41;;;;;;;4.25;1.58;;;;;;;;;;5009963;28;20072;-61
2021/05/21 03:40:08;;;;;;;3.40;1.75;;;;;;;;;;5009919;28;20037;-60
2021/05/21 03:42:34;;;;;;;3.70;1.42;;;;;;;;;;5010004;28;20034;-59
2021/05/21 03:45:00;;;;;;;3.22;1.67;;;;;;;;;;5010134;28;20035;-60
2021/05/21 03:47:26;;;;;;;4.05;1.50;;;;;;;;;;5010123;28;20018;-60
2021/05/21 03:49:52;;;;;;;5.03;1.60;;;;;;;;;;5009972;28;20033;-61
2021/05/21 03:52:19;;;;;;;4.05;1.50;;;;;;;;;;5009795;28;20025;-60
2021/05/21 03:54:45;;;;;;;3.10;1.60;;;;;;;;;;5040896;28;20022;-60
2021/05/21 03:57:11;;;;;;;3.28;1.60;;;;;;;;;;4998592;28;20030;-60
2021/05/21 03:59:37;;;;;;;5.13;1.73;;;;;;;;;;4990126;28;20026;-60
2021/05/21 04:02:03;;;;;;;5.75;1.75;;;;;;;;;;4989474;28;20038;-61
2021/05/21 04:04:29;;;;;;;2.65;1.50;;;;;;;;;;4989901;28;20026;-61
2021/05/21 04:06:55;;;;;;;2.55;1.35;;;;;;;;;;4990138;28;20033;-60
2021/05/21 04:09:21;;;;;;;3.15;1.50;;;;;;;;;;4989816;28;20487;-61
2021/05/21 04:11:47;;;;;;;3.35;1.40;;;;;;;;;;4989716;28;20026;-60
2021/05/21 04:14:13;;;;;;;3.03;1.60;;;;;;;;;;4990049;28;20498;-61
2021/05/21 04:16:40;;;;;;;5.43;1.80;;;;;;;;;;4989162;28;20076;-60
2021/05/21 04:19:06;;;;;;;2.97;1.45;;;;;;;;;;4989858;28;20073;-60
2021/05/21 04:21:32;;;;;;;3.25;1.70;;;;;;;;;;4989819;28;20037;-60
2021/05/21 04:23:59;;;;;;;2.75;1.30;;;;;;;;;;4988684;28;20157;-59
2021/05/21 04:26:26;;;;;;;4.60;1.50;;;;;;;;;;4989820;28;20110;-60
2021/05/21 04:28:52;;;;;;;4.13;1.70;;;;;;;;;;4989788;28;20026;-61
2021/05/21 04:31:19;;;;;;;2.85;1.52;;;;;;;;;;4989699;28;20022;-61
2021/05/21 04:33:45;;;;;;;3.15;1.63;;;;;;;;;;4989949;28;20029;-60
2021/05/21 04:36:11;;;;;;;4.30;1.75;;;;;;;;;;4989751;28;20033;-60
2021/05/21 04:38:37;;;;;;;3.40;1.58;;;;;;;;;;4989663;28;20050;-61
2021/05/21 04:41:04;;;;;;;4.75;1.90;;;;;;;;;;4989597;28;20054;-61
2021/05/21 04:43:30;;;;;;;4.95;1.90;;;;;;;;;;4989656;28;20035;-60
2021/05/21 04:45:57;;;;;;;4.55;1.60;;;;;;;;;;4988939;28;20037;-60
2021/05/21 04:48:23;;;;;;;8.70;1.77;;;;;;;;;;4997376;28;20030;-61
2021/05/21 04:50:50;;;;;;;8.52;2.10;;;;;;;;;;4989620;28;20027;-60
2021/05/21 04:53:16;;;;;;;6.30;1.90;;;;;;;;;;4989673;28;20022;-60
2021/05/21 04:55:42;;;;;;;3.60;1.77;;;;;;;;;;4989587;28;20030;-60
2021/05/21 04:58:09;;;;;;;5.78;1.83;;;;;;;;;;5027290;28;20037;-61
2021/05/21 05:00:35;;;;;;;6.95;1.48;;;;;;;;;;5028588;28;20030;-61
2021/05/21 05:03:05;;;;;;;9.63;1.75;;;;;;;;;;5028501;28;20546;-60
2021/05/21 05:05:31;;;;;;;3.85;1.52;;;;;;;;;;5028593;28;20052;-60
2021/05/21 05:07:57;;;;;;;7.60;2.08;;;;;;;;;;5028179;28;20029;-60
2021/05/21 05:10:23;;;;;;;19.67;2.40;;;;;;;;;;5028489;28;20029;-60
2021/05/21 05:12:49;;;;;;;19.65;2.47;;;;;;;;;;5000435;28;20026;-60
2021/05/21 05:15:15;;;;;;;22.08;2.67;;;;;;;;;;4989912;28;20105;-61
2021/05/21 05:17:41;;;;;;;9.98;2.13;;;;;;;;;;4989192;28;20026;-60
2021/05/21 05:20:08;;;;;;;16.48;2.22;;;;;;;;;;4989199;28;20026;-60
2021/05/21 05:22:34;;;;;;;11.05;2.35;;;;;;;;;;4987691;28;20050;-60
2021/05/21 05:25:00;;;;;;;8.45;2.10;;;;;;;;;;4987617;28;20506;-60
2021/05/21 05:27:26;;;;;;;11.48;2.38;;;;;;;;;;4987487;28;20037;-60
2021/05/21 05:29:52;;;;;;;7.97;1.90;;;;;;;;;;4986957;28;20038;-61
2021/05/21 05:32:18;;;;;;;6.32;1.80;;;;;;;;;;4986705;28;20109;-60
2021/05/21 05:34:44;;;;;;;7.05;1.73;;;;;;;;;;4990028;28;20105;-60
2021/05/21 05:37:10;;;;;;;8.77;1.60;;;;;;;;;;4991371;28;20069;-61
2021/05/21 05:39:36;;;;;;;6.00;2.03;;;;;;;;;;4991547;28;20030;-60
2021/05/21 05:42:02;;;;;;;16.70;2.20;;;;;;;;;;4991546;28;20105;-60
2021/05/21 05:44:30;;;;;;;7.97;2.30;;;;;;;;;;4991862;28;20475;-60
2021/05/21 05:46:56;;;;;;;7.57;2.35;;;;;;;;;;4991566;28;20018;-60
2021/05/21 05:49:22;;;;;;;8.00;2.22;;;;;;;;;;4992144;28;20027;-60
2021/05/21 05:51:48;;;;;;;8.88;2.00;;;;;;;;;;5023383;28;20046;-60
2021/05/21 05:54:14;;;;;;;10.18;2.35;;;;;;;;;;4992049;28;20084;-61
2021/05/21 05:56:40;;;;;;;5.22;1.85;;;;;;;;;;4991750;28;20030;-60
2021/05/21 05:59:06;;;;;;;6.82;1.92;;;;;;;;;;4991967;28;20021;-60
2021/05/21 06:01:32;;;;;;;3.58;1.60;;;;;;;;;;4991883;28;20060;-60
2021/05/21 06:03:58;;;;;;;12.85;1.83;;;;;;;;;;4992100;28;20419;-59
2021/05/21 06:06:24;;;;;;;10.95;2.10;;;;;;;;;;4991472;28;20023;-59
2021/05/21 06:08:51;;;;;;;17.83;1.80;;;;;;;;;;4991551;28;20034;-61
2021/05/21 06:11:17;;;;;;;6.35;2.33;;;;;;;;;;4991248;28;20064;-61
2021/05/21 06:13:43;;;;;;;10.20;2.03;;;;;;;;;;4991772;28;20031;-61
2021/05/21 06:16:09;;;;;;;7.68;2.20;;;;;;;;;;4991595;28;20111;-61
2021/05/21 06:18:36;;;;;;;7.13;1.85;;;;;;;;;;4991731;28;20159;-60
2021/05/21 06:21:02;;;;;;;4.30;1.88;;;;;;;;;;4991827;28;20064;-61
2021/05/21 06:23:30;;;;;;;7.90;1.80;;;;;;;;;;4991516;28;20080;-61
2021/05/21 06:26:41;;;;;;;5.32;1.90;;;;;;;;;;4991213;28;20015;-61
2021/05/21 06:28:45;;;;;;;6.15;1.50;;;;;;;;;;4985799;28;20041;-61
2021/05/21 06:31:12;;;;;;;7.43;1.98;;;;;;;;;;4991342;28;20022;-61
2021/05/21 06:33:39;;;;;;;6.35;1.83;;;;;;;;;;4991263;28;20030;-61
2021/05/21 06:36:05;;;;;;;4.88;1.70;;;;;;;;;;4991090;28;20067;-60
2021/05/21 06:38:31;;;;;;;9.80;2.08;;;;;;;;;;4990550;28;20047;-60
2021/05/21 06:40:57;;;;;;;6.68;1.80;;;;;;;;;;4991050;28;20025;-61
2021/05/21 06:43:23;;;;;;;5.70;1.80;;;;;;;;;;4993354;28;20387;-61
2021/05/21 06:45:50;;;;;;;7.78;1.48;;;;;;;;;;5020382;28;20439;-56
2021/05/21 06:48:16;;;;;;;5.40;1.77;;;;;;;;;;5018750;28;20018;-57
2021/05/21 06:50:43;;;;;;;4.90;1.50;;;;;;;;;;5019498;28;20029;-52
2021/05/21 06:53:09;;;;;;;13.73;1.70;;;;;;;;;;5030138;28;20051;-61
2021/05/21 06:55:36;;;;;;;4.30;1.77;;;;;;;;;;5029825;28;20022;-61
2021/05/21 06:58:02;;;;;;;5.50;1.50;;;;;;;;;;4993215;28;20036;-60
2021/05/21 07:00:28;;;;;;;5.20;1.58;;;;;;;;;;4990430;28;20023;-60
2021/05/21 07:02:54;;;;;;;5.68;1.33;;;;;;;;;;4990379;28;20066;-59
2021/05/21 07:05:20;;;;;;;5.63;1.20;;;;;;;;;;4990434;28;20026;-60
2021/05/21 07:07:46;;;;;;;4.38;1.20;;;;;;;;;;4990396;28;20037;-60
2021/05/21 07:10:13;;;;;;;4.13;1.40;;;;;;;;;;4990791;28;20023;-60
2021/05/21 07:12:39;;;;;;;4.45;1.50;;;;;;;;;;4990618;28;20054;-60
2021/05/21 07:15:06;;;;;;;3.38;1.20;;;;;;;;;;4990371;28;20023;-61
2021/05/21 07:17:32;;;;;;;2.95;1.13;;;;;;;;;;4990476;28;20545;-61
2021/05/21 07:19:58;;;;;;;9.25;2.13;;;;;;;;;;5001431;28;20060;-60
2021/05/21 07:22:25;;;;;;;3.75;1.25;;;;;;;;;;5019557;28;20597;-61
2021/05/21 07:24:51;;;;;;;3.53;1.27;;;;;;;;;;5018495;28;20022;-61
2021/05/21 07:27:17;;;;;;;3.67;1.35;;;;;;;;;;5023679;28;20021;-61
2021/05/21 07:29:43;;;;;;;2.65;1.20;;;;;;;;;;5029905;28;20025;-60
2021/05/21 07:32:09;;;;;;;5.00;1.50;;;;;;;;;;5029807;28;20026;-60
2021/05/21 07:34:36;;;;;;;4.20;1.00;;;;;;;;;;5029620;28;20060;-60
2021/05/21 07:37:03;;;;;;;2.72;1.08;;;;;;;;;;5029565;28;20045;-61
2021/05/21 07:39:29;;;;;;;3.85;1.27;;;;;;;;;;5029458;28;20014;-61
2021/05/21 07:41:57;;;;;;;2.80;1.20;;;;;;;;;;5028962;28;20508;-60
2021/05/21 07:44:23;;;;;;;2.13;0.90;;;;;;;;;;5029786;28;20054;-61
2021/05/21 07:46:50;;;;;;;3.25;1.20;;;;;;;;;;5029405;28;20028;-61
2021/05/21 07:49:22;;;;;;;1.83;0.90;;;;;;;;;;5029641;28;20101;-61
2021/05/21 07:51:48;;;;;;;7.78;1.10;;;;;;;;;;5029390;28;20025;-60
2021/05/21 07:54:14;;;;;;;2.63;0.98;;;;;;;;;;5029058;28;20028;-61
2021/05/21 07:56:40;;;;;;;2.10;1.02;;;;;;;;;;5014306;28;20023;-61
2021/05/21 07:59:08;;;;;;;2.53;1.02;;;;;;;;;;4990040;28;20014;-59
2021/05/21 08:01:34;;;;;;;3.05;1.15;;;;;;;;;;5008854;28;20063;-60
2021/05/21 08:04:00;;;;;;;4.75;1.10;;;;;;;;;;5028420;28;20029;-66
2021/05/21 08:06:26;;;;;;;5.78;1.42;;;;;;;;;;5016360;28;20025;-61
2021/05/21 08:08:52;;;;;;;6.18;1.20;;;;;;;;;;5025652;28;20025;-61
2021/05/21 08:11:18;;;;;;;5.20;1.17;;;;;;;;;;5026130;28;20022;-60
2021/05/21 08:13:45;;;;;;;2.20;0.95;;;;;;;;;;5023927;28;20049;-60
2021/05/21 08:16:13;;;;;;;2.95;1.02;;;;;;;;;;4989452;28;20031;-61
2021/05/21 08:18:39;;;;;;;3.33;0.90;;;;;;;;;;4989557;28;20019;-60
2021/05/21 08:21:06;;;;;;;3.17;1.00;;;;;;;;;;4989817;28;20023;-60
2021/05/21 08:23:32;;;;;;;2.22;0.90;;;;;;;;;;4989612;28;20048;-61
2021/05/21 08:25:58;;;;;;;2.05;0.70;;;;;;;;;;4989680;28;20022;-60
2021/05/21 08:28:26;;;;;;;3.30;1.00;;;;;;;;;;4989691;28;20081;-61
2021/05/21 08:30:52;;;;;;;1.33;0.85;;;;;;;;;;4989280;28;20118;-60
2021/05/21 08:33:18;;;;;;;2.45;0.93;;;;;;;;;;4989639;28;20019;-60
2021/05/21 08:35:45;;;;;;;2.17;0.90;;;;;;;;;;4989580;28;20034;-60
2021/05/21 08:38:11;;;;;;;2.78;0.88;;;;;;;;;;4989309;28;20046;-61
2021/05/21 08:40:38;;;;;;;2.40;1.00;;;;;;;;;;4989537;28;20026;-60
2021/05/21 08:43:08;;;;;;;3.47;0.80;;;;;;;;;;4989440;28;20038;-60
2021/05/21 08:45:34;;;;;;;3.03;0.82;;;;;;;;;;4989740;28;20023;-61
2021/05/21 08:48:02;;;;;;;3.33;1.00;;;;;;;;;;4988264;28;20512;-61
2021/05/21 08:50:28;;;;;;;3.00;0.80;;;;;;;;;;4989700;28;20486;-61
2021/05/21 08:52:54;;;;;;;3.63;0.85;;;;;;;;;;4989430;28;20034;-61
2021/05/21 08:55:20;;;;;;;2.28;0.73;;;;;;;;;;4989925;28;20140;-59
2021/05/21 08:57:47;;;;;;;1.65;0.68;;;;;;;;;;5013251;28;20032;-61
2021/05/21 09:00:14;;;;;;;3.72;0.98;;;;;;;;;;5011199;28;20018;-60
2021/05/21 09:02:40;;;;;;;2.08;0.73;;;;;;;;;;5027768;28;20037;-60
2021/05/21 09:05:07;;;;;;;2.80;0.80;;;;;;;;;;5026742;28;20033;-61
2021/05/21 09:07:34;;;;;;;2.75;0.77;;;;;;;;;;5026640;28;20030;-61
2021/05/21 09:10:09;;;;;;;13.02;0.98;;;;;;;;;;5030033;28;20025;-61
2021/05/21 09:13:05;;;;;;;7.40;0.75;;;;;;;;;;5031669;28;20038;-61
2021/05/21 09:15:31;;;;;;;2.70;0.50;;;;;;;;;;5040231;28;20102;-63
2021/05/21 09:18:02;;;;;;;2.78;0.80;;;;;;;;;;5017851;28;20037;-61
2021/05/21 09:20:28;;;;;;;1.88;0.60;;;;;;;;;;5020355;28;20113;-61
2021/05/21 09:23:08;;;;;;;0.85;0.60;;;;;;;;;;5003584;28;20042;-62
2021/05/21 09:25:44;;;;;;;2.75;0.70;;;;;;;;;;5011371;28;20050;-62
2021/05/21 09:28:29;;;;;;;1.60;0.55;;;;;;;;;;5000908;28;20057;-61
2021/05/21 09:31:06;;;;;;;2.85;0.90;;;;;;;;;;4991923;28;20272;-61
2021/05/21 09:33:35;;;;;;;1.65;0.50;;;;;;;;;;5004399;28;20029;-61
2021/05/21 09:36:02;;;;;;;1.08;0.50;;;;;;;;;;5022259;28;20113;-61
2021/05/21 09:38:31;;;;;;;3.25;0.60;;;;;;;;;;4991833;28;20096;-62
2021/05/21 09:41:05;;;;;;;2.33;0.60;;;;;;;;;;4998491;28;20025;-61
2021/05/21 09:43:31;;;;;;;4.68;0.80;;;;;;;;;;5011222;28;20042;-61
2021/05/21 09:46:05;;;;;;;2.88;0.70;;;;;;;;;;5010885;28;20022;-61
2021/05/21 09:48:31;;;;;;;1.98;0.65;;;;;;;;;;5011485;28;20022;-64
2021/05/21 09:51:00;;;;;;;3.22;0.80;;;;;;;;;;5011402;28;20079;-60
2021/05/21 09:53:26;;;;;;;2.42;0.80;;;;;;;;;;5001812;28;20056;-61
2021/05/21 09:55:56;;;;;;;1.55;0.60;;;;;;;;;;4991827;28;20065;-62
2021/05/21 09:58:24;;;;;;;2.15;0.70;;;;;;;;;;4992021;28;20040;-60
2021/05/21 10:01:09;;;;;;;4.00;0.65;;;;;;;;;;5023367;28;20058;-61
2021/05/21 10:03:35;;;;;;;3.28;0.68;;;;;;;;;;4991813;28;20039;-61
2021/05/21 10:06:02;;;;;;;9.25;1.30;;;;;;;;;;4992220;28;20056;-61
2021/05/21 10:08:29;;;;;;;3.55;1.00;;;;;;;;;;4991676;28;20026;-62
2021/05/21 10:10:55;;;;;;;9.60;0.77;;;;;;;;;;4991380;28;20033;-60
2021/05/21 10:13:21;;;;;;;4.85;1.00;;;;;;;;;;4991399;28;20057;-61
2021/05/21 10:15:48;;;;;;;4.25;0.90;;;;;;;;;;5022282;28;20030;-61
2021/05/21 10:18:14;;;;;;;4.13;0.82;;;;;;;;;;4991741;28;20037;-62
2021/05/21 10:20:44;;;;;;;5.70;0.88;;;;;;;;;;4991277;28;20140;-61
2021/05/21 10:23:12;;;;;;;8.10;1.20;;;;;;;;;;4991413;28;20399;-62
2021/05/21 10:25:38;;;;;;;5.03;1.00;;;;;;;;;;4991479;28;20026;-61
2021/05/21 10:28:07;;;;;;;3.95;0.80;;;;;;;;;;4991625;28;20513;-61
2021/05/21 10:30:35;;;;;;;8.10;1.02;;;;;;;;;;4991791;28;20421;-63
2021/05/21 10:33:22;;;;;;;4.13;0.90;;;;;;;;;;4991338;28;20022;-62
2021/05/21 10:35:48;;;;;;;4.82;0.75;;;;;;;;;;4991240;28;20025;-60
2021/05/21 10:38:17;;;;;;;3.05;0.95;;;;;;;;;;4990977;28;20047;-62
2021/05/21 10:40:44;;;;;;;2.60;0.82;;;;;;;;;;4990246;28;20037;-61
2021/05/21 10:43:17;;;;;;;3.90;0.98;;;;;;;;;;4990270;28;20066;-59
2021/05/21 10:45:53;;;;;;;2.35;0.63;;;;;;;;;;4989910;28;20045;-60
2021/05/21 10:48:26;;;;;;;3.05;1.10;;;;;;;;;;4990663;28;20026;-58
2021/05/21 10:51:06;;;;;;;2.10;0.73;;;;;;;;;;4990868;28;20109;-60
2021/05/21 10:53:32;;;;;;;3.90;0.63;;;;;;;;;;5013160;28;20432;-59
2021/05/21 10:55:58;;;;;;;5.65;1.00;;;;;;;;;;5017599;28;20071;-61
2021/05/21 10:58:30;;;;;;;4.60;0.77;;;;;;;;;;5019801;28;20104;-59
2021/05/21 11:01:16;;;;;;;2.90;0.88;;;;;;;;;;5010207;28;20420;-59
2021/05/21 11:04:13;;;;;;;3.15;0.88;;;;;;;;;;5010267;28;20022;-60
2021/05/21 11:06:47;;;;;;;4.18;0.95;;;;;;;;;;5002205;28;20118;-61
2021/05/21 11:09:14;;;;;;;2.72;0.60;;;;;;;;;;5010202;28;20033;-59
2021/05/21 11:11:47;;;;;;;3.90;0.80;;;;;;;;;;5010063;28;20067;-57
2021/05/21 11:14:28;;;;;;;6.03;0.90;;;;;;;;;;5010130;28;20527;-60
2021/05/21 11:16:59;;;;;;;3.78;0.80;;;;;;;;;;5010040;28;20109;-61
2021/05/21 11:19:27;;;;;;;2.17;0.88;;;;;;;;;;5010450;28;20025;-61
2021/05/21 11:22:05;;;;;;;2.60;0.88;;;;;;;;;;5009928;28;20060;-61
2021/05/21 11:24:35;;;;;;;2.28;0.65;;;;;;;;;;5010187;28;20028;-61
2021/05/21 11:27:02;;;;;;;4.80;0.77;;;;;;;;;;5009871;28;20039;-62
2021/05/21 11:29:28;;;;;;;4.35;0.70;;;;;;;;;;5004118;28;20090;-61
2021/05/21 11:31:54;;;;;;;3.33;0.77;;;;;;;;;;4989601;28;20464;-59
2021/05/21 11:34:20;;;;;;;2.40;0.60;;;;;;;;;;4990364;28;20406;-55
2021/05/21 11:36:46;;;;;;;4.63;0.85;;;;;;;;;;4989944;28;20034;-59
2021/05/21 11:39:12;;;;;;;1.63;0.60;;;;;;;;;;4990524;28;20022;-61
2021/05/21 11:41:44;;;;;;;4.15;0.73;;;;;;;;;;4990320;28;20058;-61
2021/05/21 11:44:12;;;;;;;6.22;0.98;;;;;;;;;;4989799;28;20502;-63
2021/05/21 11:46:43;;;;;;;6.05;0.88;;;;;;;;;;4989494;28;20027;-60
2021/05/21 11:49:19;;;;;;;4.45;1.08;;;;;;;;;;4990097;28;20026;-60
2021/05/21 11:51:52;;;;;;;6.15;1.00;;;;;;;;;;4990035;28;20022;-61
2021/05/21 11:54:18;;;;;;;2.40;0.80;;;;;;;;;;4989281;28;20026;-61
2021/05/21 11:56:44;;;;;;;3.88;0.80;;;;;;;;;;4989215;28;20038;-61
2021/05/21 11:59:11;;;;;;;1.00;0.43;;;;;;;;;;4988291;28;20494;-61
2021/05/21 12:01:43;;;;;;;4.82;1.00;;;;;;;;;;4987998;28;20026;-62
2021/05/21 12:04:09;;;;;;;2.23;0.70;;;;;;;;;;4989100;28;20059;-62
2021/05/21 12:06:39;;;;;;;3.15;0.73;;;;;;;;;;4989204;28;20025;-60
2021/05/21 12:09:06;;;;;;;2.80;0.50;;;;;;;;;;4989608;28;20489;-61
2021/05/21 12:11:32;;;;;;;6.63;0.75;;;;;;;;;;4989720;28;20033;-61
2021/05/21 12:14:05;;;;;;;13.50;1.13;;;;;;;;;;4989214;28;20022;-61
2021/05/21 12:16:31;;;;;;;15.25;1.02;;;;;;;;;;5019455;28;20431;-61
2021/05/21 12:19:01;;;;;;;17.00;1.05;;;;;;;;;;5027185;28;20062;-63
2021/05/21 12:21:35;;;;;;;2.72;0.70;;;;;;;;;;5002008;28;20037;-62
2021/05/21 12:24:01;;;;;;;7.25;1.25;;;;;;;;;;5013371;28;20022;-62
2021/05/21 12:26:29;;;;;;;7.53;1.00;;;;;;;;;;5007588;28;20050;-62
2021/05/21 12:28:56;;;;;;;11.68;1.65;;;;;;;;;;5000297;28;20055;-63
2021/05/21 12:31:29;;;;;;;8.65;0.88;;;;;;;;;;5028850;28;20018;-61
2021/05/21 12:33:56;;;;;;;6.93;0.90;;;;;;;;;;5013938;28;20079;-62
2021/05/21 12:36:24;;;;;;;9.68;1.17;;;;;;;;;;5007560;28;20022;-63
2021/05/21 12:38:54;;;;;;;5.95;0.70;;;;;;;;;;5008928;28;20095;-62
2021/05/21 12:41:23;;;;;;;3.78;0.60;;;;;;;;;;5008942;28;20050;-62
2021/05/21 12:43:50;;;;;;;4.80;0.90;;;;;;;;;;5011108;28;20029;-61
2021/05/21 12:46:16;;;;;;;7.38;1.05;;;;;;;;;;5012490;28;20026;-61
2021/05/21 12:48:43;;;;;;;5.18;0.80;;;;;;;;;;5012448;28;20548;-62
2021/05/21 12:51:30;;;;;;;5.07;1.08;;;;;;;;;;5012410;28;20030;-63
2021/05/21 12:54:18;;;;;;;4.15;0.60;;;;;;;;;;5012347;28;20022;-62
2021/05/21 12:56:44;;;;;;;6.15;1.52;;;;;;;;;;5012480;28;20030;-62
2021/05/21 12:59:11;;;;;;;4.25;0.75;;;;;;;;;;5012608;28;20057;-62
2021/05/21 13:01:37;;;;;;;2.60;0.60;;;;;;;;;;5002822;28;20656;-62
2021/05/21 13:04:11;;;;;;;3.63;0.70;;;;;;;;;;4992565;28;20034;-62
2021/05/21 13:06:37;;;;;;;7.22;0.70;;;;;;;;;;4992416;28;20109;-62
2021/05/21 13:09:06;;;;;;;6.50;1.05;;;;;;;;;;5012446;28;20022;-62
2021/05/21 13:11:51;;;;;;;5.25;0.85;;;;;;;;;;5011779;28;20546;-60
2021/05/21 13:14:17;;;;;;;7.40;0.70;;;;;;;;;;5012273;28;20018;-63
2021/05/21 13:16:49;;;;;;;6.25;0.95;;;;;;;;;;5013833;28;20022;-62
2021/05/21 13:19:24;;;;;;;17.33;1.60;;;;;;;;;;5012144;28;20083;-63
2021/05/21 13:21:51;;;;;;;6.90;1.42;;;;;;;;;;5011900;28;20394;-62
2021/05/21 13:24:20;;;;;;;3.80;0.70;;;;;;;;;;5012646;28;20018;-66
2021/05/21 13:26:51;;;;;;;1.90;0.47;;;;;;;;;;5030184;28;20422;-62
2021/05/21 13:29:17;;;;;;;9.35;0.90;;;;;;;;;;5020029;28;20015;-62
2021/05/21 13:31:44;;;;;;;7.82;1.23;;;;;;;;;;4992158;28;20034;-62
2021/05/21 13:34:10;;;;;;;11.85;1.70;;;;;;;;;;4998676;28;20032;-62
2021/05/21 13:36:36;;;;;;;11.60;1.05;;;;;;;;;;5026305;28;20034;-60
2021/05/21 13:39:03;;;;;;;18.80;1.67;;;;;;;;;;4993330;28;20077;-65
2021/05/21 13:41:29;;;;;;;10.50;1.42;;;;;;;;;;4994827;28;20023;-65
2021/05/21 13:43:55;;;;;;;12.48;1.40;;;;;;;;;;5005005;28;20034;-61
2021/05/21 13:46:21;;;;;;;9.95;1.00;;;;;;;;;;5010537;28;20018;-60
2021/05/21 13:48:47;;;;;;;5.80;1.05;;;;;;;;;;4991597;28;20041;-61
2021/05/21 13:51:13;;;;;;;10.77;1.27;;;;;;;;;;4992133;28;20022;-60
2021/05/21 13:53:40;;;;;;;6.95;1.00;;;;;;;;;;4990924;28;20475;-60
2021/05/21 13:56:06;;;;;;;8.00;1.05;;;;;;;;;;4991195;28;20060;-60
2021/05/21 13:58:32;;;;;;;12.05;1.48;;;;;;;;;;4992938;28;20030;-59
2021/05/21 14:00:58;;;;;;;6.95;0.60;;;;;;;;;;5011533;28;20101;-66
2021/05/21 14:03:24;;;;;;;7.60;1.42;;;;;;;;;;5011307;28;20414;-66
2021/05/21 14:05:50;;;;;;;6.63;1.20;;;;;;;;;;5011511;28;20108;-65
2021/05/21 14:08:16;;;;;;;2.60;0.68;;;;;;;;;;5011465;28;20158;-63
2021/05/21 14:10:42;;;;;;;4.55;0.88;;;;;;;;;;5011720;28;20015;-65
2021/05/21 14:13:08;;;;;;;7.75;0.95;;;;;;;;;;5011423;28;20033;-65
2021/05/21 14:15:34;;;;;;;4.22;0.88;;;;;;;;;;5010994;28;20010;-61
2021/05/21 14:18:00;;;;;;;4.57;0.95;;;;;;;;;;5010897;28;20025;-62
2021/05/21 14:20:26;;;;;;;3.85;0.70;;;;;;;;;;5011018;28;20533;-59
2021/05/21 14:22:53;;;;;;;5.82;1.00;;;;;;;;;;5011229;28;20095;-59
2021/05/21 14:25:29;;;;;;;10.82;1.60;;;;;;;;;;5011033;28;20109;-60
2021/05/21 14:27:55;;;;;;;3.47;1.08;;;;;;;;;;5011300;28;20049;-60
2021/05/21 14:30:23;;;;;;;5.78;0.80;;;;;;;;;;5011199;28;20022;-65
2021/05/21 14:32:51;;;;;;;4.03;0.90;;;;;;;;;;5010955;28;20049;-65
2021/05/21 14:35:17;;;;;;;5.82;0.90;;;;;;;;;;5039711;28;20491;-65
2021/05/21 14:37:44;;;;;;;4.75;1.52;;;;;;;;;;4989996;28;20141;-64
2021/05/21 14:40:11;;;;;;;7.40;0.77;;;;;;;;;;4991269;28;20022;-61
2021/05/21 14:42:38;;;;;;;4.93;1.23;;;;;;;;;;4991370;28;20053;-61
2021/05/21 14:45:05;;;;;;;2.40;0.82;;;;;;;;;;4991312;28;20491;-61